createdAt,value
2022-12-24T00:01:17.197Z,96.67
2022-12-24T00:03:43.814Z,96.70
2022-12-24T00:06:20.290Z,96.83
2022-12-24T00:08:47.159Z,96.97
2022-12-24T00:11:13.960Z,96.66
2022-12-24T00:13:40.528Z,96.88
2022-12-24T00:16:07.276Z,96.58
2022-12-24T00:18:34.357Z,96.87
2022-12-24T00:21:06.782Z,96.79
2022-12-24T00:23:35.617Z,96.44
2022-12-24T00:26:04.557Z,96.57
2022-12-24T00:28:31.150Z,97.25
2022-12-24T00:30:57.973Z,96.89
2022-12-24T00:33:24.965Z,97.25
2022-12-24T00:35:52.542Z,97.13
2022-12-24T00:38:19.282Z,97.37
2022-12-24T00:40:48.209Z,97.47
2022-12-24T00:43:14.852Z,97.62
2022-12-24T00:45:44.154Z,97.59
2022-12-24T00:48:10.752Z,97.42
2022-12-24T00:50:37.318Z,97.87
2022-12-24T00:53:06.465Z,97.39
2022-12-24T00:55:33.024Z,97.56
2022-12-24T00:57:59.595Z,97.50
2022-12-24T01:00:26.219Z,97.45
2022-12-24T01:02:52.967Z,97.29
2022-12-24T01:05:23.109Z,97.07
2022-12-24T01:07:49.712Z,96.78
2022-12-24T01:10:19.541Z,96.96
2022-12-24T01:12:47.029Z,97.29
2022-12-24T01:15:14.622Z,97.10
2022-12-24T01:17:41.434Z,97.03
2022-12-24T01:20:13.634Z,97.24
2022-12-24T01:22:42.611Z,97.14
2022-12-24T01:25:09.860Z,97.04
2022-12-24T01:27:36.490Z,97.23
2022-12-24T01:30:04.813Z,97.25
2022-12-24T01:32:31.383Z,96.98
2022-12-24T01:34:58.042Z,97.67
2022-12-24T01:37:24.575Z,97.38
2022-12-24T01:39:51.179Z,97.31
2022-12-24T01:42:41.989Z,97.47
2022-12-24T01:45:45.807Z,97.75
2022-12-24T01:48:38.992Z,97.50
2022-12-24T01:51:19.429Z,97.34
2022-12-24T01:53:51.461Z,97.97
2022-12-24T01:56:19.883Z,97.92
2022-12-24T01:58:51.433Z,97.66
2022-12-24T02:01:18.275Z,97.88
2022-12-24T02:03:45.107Z,97.85
2022-12-24T02:06:20.947Z,97.75
2022-12-24T02:08:47.761Z,98.05
2022-12-24T02:11:18.479Z,97.95
2022-12-24T02:13:51.158Z,97.26
2022-12-24T02:16:41.217Z,97.15
2022-12-24T02:19:35.116Z,97.25
2022-12-24T02:22:17.652Z,96.67
2022-12-24T02:25:05.912Z,97.13
2022-12-24T02:27:51.239Z,97.24
2022-12-24T02:30:24.746Z,97.30
2022-12-24T02:33:26.857Z,97.33
2022-12-24T02:36:02.347Z,97.37
2022-12-24T02:38:42.177Z,96.80
2022-12-24T02:41:14.065Z,96.87
2022-12-24T02:43:44.521Z,96.74
2022-12-24T02:46:19.133Z,96.73
2022-12-24T02:48:48.649Z,97.11
2022-12-24T02:51:15.774Z,97.24
2022-12-24T02:53:42.903Z,97.31
2022-12-24T02:56:27.648Z,97.68
2022-12-24T02:59:14.491Z,97.18
2022-12-24T03:01:53.211Z,97.56
2022-12-24T03:04:39.955Z,97.71
2022-12-24T03:07:21.687Z,97.69
2022-12-24T03:09:55.780Z,98.11
2022-12-24T03:12:36.761Z,97.87
2022-12-24T03:15:05.182Z,97.65
2022-12-24T03:17:37.036Z,97.54
2022-12-24T03:20:05.973Z,97.52
2022-12-24T03:22:38.116Z,97.31
2022-12-24T03:25:05.193Z,97.30
2022-12-24T03:27:34.327Z,97.72
2022-12-24T03:30:02.267Z,97.52
2022-12-24T03:32:33.913Z,97.63
2022-12-24T03:35:00.842Z,97.33
2022-12-24T03:37:27.769Z,97.51
2022-12-24T03:39:54.338Z,97.65
2022-12-24T03:42:20.910Z,97.68
2022-12-24T03:44:47.497Z,97.71
2022-12-24T03:47:16.334Z,97.84
2022-12-24T03:49:43.289Z,97.77
2022-12-24T03:52:09.823Z,97.87
2022-12-24T03:54:39.239Z,97.58
2022-12-24T03:57:08.089Z,97.46
2022-12-24T03:59:34.647Z,97.48
2022-12-24T04:02:01.423Z,97.20
2022-12-24T04:04:28.163Z,97.10
2022-12-24T04:06:54.752Z,97.17
2022-12-24T04:09:21.322Z,97.26
2022-12-24T04:11:47.874Z,96.96
2022-12-24T04:14:16.592Z,97.00
2022-12-24T04:16:43.180Z,97.02
2022-12-24T04:19:09.762Z,97.04
2022-12-24T04:21:38.881Z,96.95
2022-12-24T04:24:05.928Z,96.68
2022-12-24T04:26:32.456Z,96.88
2022-12-24T04:28:58.994Z,96.99
2022-12-24T04:31:25.631Z,96.82
2022-12-24T04:33:56.801Z,96.76
2022-12-24T04:36:23.334Z,96.84
2022-12-24T04:38:49.930Z,96.87
2022-12-24T04:41:23.944Z,96.76
2022-12-24T04:43:52.539Z,96.65
2022-12-24T04:46:24.411Z,96.93
2022-12-24T04:48:53.013Z,96.94
2022-12-24T04:51:20.680Z,96.66
2022-12-24T04:53:47.438Z,96.72
2022-12-24T04:56:21.219Z,96.66
2022-12-24T04:58:53.520Z,96.78
2022-12-24T05:01:26.060Z,96.80
2022-12-24T05:03:53.716Z,96.86
2022-12-24T05:06:23.513Z,96.92
2022-12-24T05:08:53.490Z,96.80
2022-12-24T05:11:20.032Z,96.80
2022-12-24T05:13:48.116Z,96.73
2022-12-24T05:16:19.723Z,96.61
2022-12-24T05:18:46.569Z,96.91
2022-12-24T05:21:33.651Z,96.80
2022-12-24T05:24:18.937Z,96.93
2022-12-24T05:26:53.592Z,96.89
2022-12-24T05:29:20.217Z,97.01
2022-12-24T05:31:46.846Z,96.88
2022-12-24T05:34:16.969Z,97.07
2022-12-24T05:36:47.357Z,96.65
2022-12-24T05:39:18.206Z,96.89
2022-12-24T05:41:45.703Z,96.88
2022-12-24T05:44:12.434Z,96.95
2022-12-24T05:46:39.095Z,97.09
2022-12-24T05:49:08.063Z,96.92
2022-12-24T05:51:37.267Z,96.80
2022-12-24T05:54:04.661Z,96.86
2022-12-24T05:56:31.287Z,96.84
2022-12-24T05:59:00.579Z,96.61
2022-12-24T06:01:27.743Z,96.99
2022-12-24T06:03:54.372Z,96.59
2022-12-24T06:06:27.632Z,96.62
2022-12-24T06:08:55.131Z,96.62
2022-12-24T06:11:26.225Z,96.76
2022-12-24T06:13:53.583Z,96.68
2022-12-24T06:16:21.173Z,96.55
2022-12-24T06:18:47.931Z,97.20
2022-12-24T06:21:15.828Z,97.22
2022-12-24T06:23:46.364Z,97.25
2022-12-24T06:26:19.493Z,97.28
2022-12-24T06:28:50.077Z,97.49
2022-12-24T06:31:19.709Z,97.75
2022-12-24T06:33:49.229Z,98.00
2022-12-24T06:36:21.904Z,97.68
2022-12-24T06:38:51.854Z,97.59
2022-12-24T06:41:19.675Z,97.87
2022-12-24T06:43:48.292Z,97.93
2022-12-24T06:46:15.632Z,97.62
2022-12-24T06:48:46.464Z,97.50
2022-12-24T06:51:14.910Z,97.28
2022-12-24T06:53:41.504Z,97.58
2022-12-24T06:56:10.780Z,97.29
2022-12-24T06:58:40.810Z,97.17
2022-12-24T07:01:10.236Z,97.08
2022-12-24T07:03:37.328Z,96.94
2022-12-24T07:06:04.442Z,97.44
2022-12-24T07:08:33.704Z,97.55
2022-12-24T07:11:06.497Z,97.68
2022-12-24T07:17:03.489Z,97.29
2022-12-24T07:19:34.902Z,97.29
2022-12-24T07:22:01.515Z,97.60
2022-12-24T07:24:28.295Z,97.14
2022-12-24T07:26:54.936Z,97.15
2022-12-24T07:29:22.657Z,97.23
2022-12-24T07:31:51.611Z,97.50
2022-12-24T07:34:24.760Z,97.34
2022-12-24T07:36:59.739Z,97.06
2022-12-24T07:39:34.824Z,97.67
2022-12-24T07:42:10.509Z,97.65
2022-12-24T07:44:39.647Z,97.70
2022-12-24T07:47:11.895Z,97.49
2022-12-24T07:49:49.443Z,97.88
2022-12-24T07:52:18.563Z,97.58
2022-12-24T07:54:45.383Z,97.53
2022-12-24T07:57:14.182Z,98.01
2022-12-24T07:59:40.737Z,97.67
2022-12-24T08:02:17.622Z,97.95
2022-12-24T08:04:47.190Z,97.62
2022-12-24T08:07:13.800Z,97.47
2022-12-24T08:09:42.722Z,97.37
2022-12-24T08:12:12.131Z,97.79
2022-12-24T08:14:38.689Z,97.85
2022-12-24T08:17:05.261Z,97.67
2022-12-24T08:19:31.977Z,97.66
2022-12-24T08:21:58.586Z,97.79
2022-12-24T08:24:25.216Z,97.84
2022-12-24T08:26:51.733Z,97.70
2022-12-24T08:29:18.352Z,97.36
2022-12-24T08:31:44.938Z,97.14
2022-12-24T08:34:11.813Z,97.23
2022-12-24T08:36:40.655Z,97.08
2022-12-24T08:39:10.045Z,96.67
2022-12-24T08:41:36.907Z,96.99
2022-12-24T08:44:03.737Z,96.58
2022-12-24T08:46:30.373Z,96.66
2022-12-24T08:48:56.945Z,96.44
2022-12-24T08:51:23.578Z,96.69
2022-12-24T08:53:50.647Z,96.26
2022-12-24T08:56:20.175Z,96.10
2022-12-24T08:58:48.809Z,96.41
2022-12-24T09:01:18.438Z,96.01
2022-12-24T09:03:45.189Z,96.32
2022-12-24T09:06:14.781Z,96.06
2022-12-24T09:08:41.578Z,95.93
2022-12-24T09:11:13.943Z,95.62
2022-12-24T09:13:40.982Z,95.41
2022-12-24T09:16:11.123Z,94.69
2022-12-24T09:18:38.408Z,94.58
2022-12-24T09:21:11.720Z,93.62
2022-12-24T09:23:44.155Z,92.75
2022-12-24T09:26:16.934Z,93.16
2022-12-24T09:28:46.620Z,93.29
2022-12-24T09:31:18.333Z,93.61
2022-12-24T09:33:49.723Z,93.83
2022-12-24T09:36:16.962Z,94.15
2022-12-24T09:38:43.722Z,94.31
2022-12-24T09:41:31.642Z,94.44
2022-12-24T09:44:08.285Z,94.62
2022-12-24T09:46:41.175Z,94.89
2022-12-24T09:49:17.197Z,94.72
2022-12-24T09:52:00.237Z,94.10
2022-12-24T09:54:36.766Z,93.77
2022-12-24T09:57:15.570Z,93.11
2022-12-24T09:59:47.640Z,92.46
2022-12-24T10:02:19.124Z,91.73
2022-12-24T10:04:55.090Z,91.39
2022-12-24T10:11:12.487Z,91.25
2022-12-24T10:14:15.490Z,91.28
2022-12-24T10:16:48.743Z,91.22
2022-12-24T10:19:24.373Z,91.20
2022-12-24T10:22:00.186Z,91.11
2022-12-24T10:24:50.827Z,91.31
2022-12-24T10:27:21.648Z,91.57
2022-12-24T10:29:54.430Z,92.05
2022-12-24T10:32:32.848Z,92.12
2022-12-24T10:35:06.080Z,92.16
2022-12-24T10:37:35.074Z,91.97
2022-12-24T10:40:06.056Z,92.00
2022-12-24T10:42:51.002Z,91.90
2022-12-24T10:45:21.858Z,92.17
2022-12-24T10:47:52.901Z,92.13
2022-12-24T10:50:35.936Z,92.07
2022-12-24T10:53:27.857Z,92.40
2022-12-24T10:56:04.010Z,92.20
2022-12-24T10:58:30.875Z,91.78
2022-12-24T11:00:57.665Z,91.26
2022-12-24T11:03:37.247Z,91.21
2022-12-24T11:06:08.138Z,90.95
2022-12-24T11:08:42.207Z,91.13
2022-12-24T11:11:12.806Z,91.04
2022-12-24T11:13:51.644Z,91.31
2022-12-24T11:16:35.607Z,91.14
2022-12-24T11:19:05.205Z,90.44
2022-12-24T11:21:37.955Z,90.30
2022-12-24T11:24:12.379Z,90.09
2022-12-24T11:26:41.505Z,89.80
2022-12-24T11:29:27.889Z,89.57
2022-12-24T11:32:17.876Z,89.75
2022-12-24T11:34:44.884Z,89.40
2022-12-24T11:37:15.297Z,89.19
2022-12-24T11:39:47.507Z,88.73
2022-12-24T11:42:34.030Z,88.93
2022-12-24T11:45:04.505Z,88.80
2022-12-24T11:47:40.275Z,88.67
2022-12-24T11:50:27.411Z,88.63
2022-12-24T11:53:03.147Z,88.44
2022-12-24T11:55:50.806Z,88.38
2022-12-24T11:58:23.120Z,88.20
2022-12-24T12:00:51.913Z,88.38
2022-12-24T12:03:34.638Z,88.55
2022-12-24T12:06:17.081Z,88.16
2022-12-24T12:08:44.744Z,88.36
2022-12-24T12:11:14.297Z,88.04
2022-12-24T12:13:46.063Z,87.63
2022-12-24T12:17:03.611Z,87.26
2022-12-24T12:19:43.203Z,87.21
2022-12-24T12:22:26.918Z,87.63
2022-12-24T12:24:58.899Z,87.51
2022-12-24T12:27:35.691Z,87.52
2022-12-24T12:30:06.643Z,87.43
2022-12-24T12:32:53.990Z,87.17
2022-12-24T12:35:28.271Z,87.06
2022-12-24T12:37:58.861Z,86.85
2022-12-24T12:41:01.116Z,86.89
2022-12-24T12:43:39.811Z,86.65
2022-12-24T12:46:41.202Z,86.74
2022-12-24T12:49:24.166Z,86.70
2022-12-24T12:52:00.187Z,86.59
2022-12-24T12:54:40.255Z,86.49
2022-12-24T12:57:13.668Z,86.58
2022-12-24T12:59:52.168Z,86.66
2022-12-24T13:02:40.542Z,86.94
2022-12-24T13:05:28.817Z,87.38
2022-12-24T13:08:24.670Z,87.56
2022-12-24T13:11:16.064Z,87.54
2022-12-24T13:14:32.058Z,87.96
2022-12-24T13:17:26.368Z,88.00
2022-12-24T13:19:57.780Z,87.69
2022-12-24T13:22:26.714Z,87.44
2022-12-24T13:24:55.839Z,87.82
2022-12-24T13:27:33.073Z,88.15
2022-12-24T13:30:26.733Z,87.91
2022-12-24T13:32:57.253Z,88.29
2022-12-24T13:35:23.789Z,88.50
2022-12-24T13:37:53.438Z,88.53
2022-12-24T13:40:27.490Z,88.39
2022-12-24T13:43:06.366Z,88.34
2022-12-24T13:45:41.607Z,87.99
2022-12-24T13:48:11.142Z,88.10
2022-12-24T13:50:38.982Z,88.01
2022-12-24T13:53:19.008Z,87.89
2022-12-24T13:55:57.257Z,87.99
2022-12-24T13:58:26.096Z,87.94
2022-12-24T14:01:00.356Z,87.82
2022-12-24T14:03:47.448Z,87.57
2022-12-24T14:06:28.334Z,87.65
2022-12-24T14:09:05.259Z,88.00
2022-12-24T14:11:58.147Z,87.95
2022-12-24T14:14:36.957Z,87.97
2022-12-24T14:17:36.224Z,88.33
2022-12-24T14:20:09.327Z,88.18
2022-12-24T14:22:45.953Z,88.23
2022-12-24T14:25:18.562Z,88.35
2022-12-24T14:27:51.891Z,88.83
2022-12-24T14:30:23.674Z,89.06
2022-12-24T14:32:52.047Z,89.11
2022-12-24T14:35:31.139Z,89.29
2022-12-24T14:38:12.443Z,89.35
2022-12-24T14:40:50.864Z,89.73
2022-12-24T14:43:45.774Z,89.69
2022-12-24T14:46:41.737Z,90.08
2022-12-24T14:49:22.025Z,90.28
2022-12-24T14:52:38.041Z,90.47
2022-12-24T14:54:59.960Z,90.64
2022-12-24T14:57:27.220Z,90.66
2022-12-24T14:59:59.081Z,91.14
2022-12-24T15:02:25.797Z,91.01
2022-12-24T15:05:04.822Z,91.41
2022-12-24T15:07:36.099Z,91.19
2022-12-24T15:10:04.815Z,91.42
2022-12-24T15:12:34.559Z,91.36
2022-12-24T15:15:03.537Z,91.84
2022-12-24T15:17:30.172Z,91.83
2022-12-24T15:19:58.230Z,92.32
2022-12-24T15:22:29.783Z,92.63
2022-12-24T15:24:56.372Z,92.88
2022-12-24T15:27:25.701Z,93.01
2022-12-24T15:29:57.120Z,92.85
2022-12-24T15:32:26.218Z,92.86
2022-12-24T15:35:00.362Z,93.12
2022-12-24T15:37:37.473Z,93.29
2022-12-24T15:40:11.444Z,93.40
2022-12-24T15:42:44.251Z,93.76
2022-12-24T15:45:26.690Z,93.81
2022-12-24T15:48:11.021Z,93.57
2022-12-24T15:50:44.242Z,93.47
2022-12-24T15:53:26.256Z,93.89
2022-12-24T15:56:13.620Z,93.95
2022-12-24T15:58:42.849Z,93.53
2022-12-24T16:01:09.538Z,94.22
2022-12-24T16:03:41.560Z,94.31
2022-12-24T16:06:11.326Z,94.44
2022-12-24T16:08:40.066Z,94.41
2022-12-24T16:11:34.776Z,94.18
2022-12-24T16:14:14.492Z,94.41
2022-12-24T16:16:43.613Z,94.54
2022-12-24T16:19:39.515Z,94.51
2022-12-24T16:22:26.084Z,94.63
2022-12-24T16:24:52.780Z,94.41
2022-12-24T16:27:19.329Z,94.41
2022-12-24T16:29:47.026Z,94.69
2022-12-24T16:32:38.080Z,94.89
2022-12-24T16:35:10.551Z,94.65
2022-12-24T16:37:39.611Z,94.63
2022-12-24T16:40:09.221Z,94.42
2022-12-24T16:42:57.908Z,94.82
2022-12-24T16:45:24.568Z,94.40
2022-12-24T16:47:56.546Z,94.63
2022-12-24T16:50:23.079Z,94.53
2022-12-24T16:52:49.800Z,94.50
2022-12-24T16:55:16.640Z,94.78
2022-12-24T16:57:46.032Z,94.27
2022-12-24T17:00:19.988Z,94.48
2022-12-24T17:02:47.708Z,94.65
2022-12-24T17:05:15.457Z,94.55
2022-12-24T17:07:44.019Z,94.93
2022-12-24T17:10:14.624Z,95.04
2022-12-24T17:12:41.567Z,94.84
2022-12-24T17:15:08.688Z,94.87
2022-12-24T17:17:35.552Z,94.73
2022-12-24T17:20:03.238Z,94.79
2022-12-24T17:22:30.098Z,95.13
2022-12-24T17:24:56.958Z,95.41
2022-12-24T17:27:23.567Z,95.42
2022-12-24T17:29:50.780Z,94.86
2022-12-24T17:32:17.366Z,95.33
2022-12-24T17:34:44.016Z,94.96
2022-12-24T17:37:10.727Z,95.29
2022-12-24T17:39:37.358Z,95.40
2022-12-24T17:42:04.275Z,95.60
2022-12-24T17:44:30.900Z,95.44
2022-12-24T17:46:57.580Z,95.75
2022-12-24T17:49:24.242Z,95.40
2022-12-24T17:51:50.908Z,95.74
2022-12-24T17:54:19.785Z,95.53
2022-12-24T17:56:46.488Z,95.70
2022-12-24T17:59:13.107Z,95.78
2022-12-24T18:01:39.938Z,95.98
2022-12-24T18:04:06.581Z,96.34
2022-12-24T18:06:33.954Z,96.34
2022-12-24T18:09:00.635Z,95.85
2022-12-24T18:11:34.379Z,96.04
2022-12-24T18:14:02.493Z,96.00
2022-12-24T18:16:35.240Z,96.25
2022-12-24T18:19:02.754Z,96.70
2022-12-24T18:21:31.703Z,96.56
2022-12-24T18:23:59.300Z,96.47
2022-12-24T18:26:28.103Z,96.59
2022-12-24T18:28:56.218Z,96.95
2022-12-24T18:31:23.704Z,96.74
2022-12-24T18:33:51.777Z,96.66
2022-12-24T18:36:21.414Z,96.69
2022-12-24T18:38:48.191Z,96.70
2022-12-24T18:41:21.286Z,96.44
2022-12-24T18:43:48.514Z,96.82
2022-12-24T18:46:20.440Z,96.61
2022-12-24T18:48:47.650Z,96.86
2022-12-24T18:51:15.036Z,96.54
2022-12-24T18:53:47.171Z,96.84
2022-12-24T18:56:18.328Z,96.86
2022-12-24T18:58:50.798Z,97.15
2022-12-24T19:01:21.103Z,97.24
2022-12-24T19:03:49.318Z,97.38
2022-12-24T19:06:17.435Z,96.99
2022-12-24T19:08:57.173Z,97.03
2022-12-24T19:11:26.146Z,97.33
2022-12-24T19:13:55.678Z,97.09
2022-12-24T19:16:24.968Z,96.71
2022-12-24T19:18:51.607Z,96.82
2022-12-24T19:21:20.628Z,97.32
2022-12-24T19:23:47.745Z,97.19
2022-12-24T19:26:16.070Z,97.09
2022-12-24T19:28:43.139Z,96.66
2022-12-24T19:31:12.349Z,96.75
2022-12-24T19:33:47.910Z,97.15
2022-12-24T19:36:21.645Z,97.06
2022-12-24T19:38:48.330Z,96.60
2022-12-24T19:41:19.667Z,96.70
2022-12-24T19:43:48.722Z,97.01
2022-12-24T19:46:17.959Z,96.79
2022-12-24T19:48:49.574Z,96.98
2022-12-24T19:51:18.841Z,96.60
2022-12-24T19:53:45.868Z,96.96
2022-12-24T19:56:20.750Z,97.25
2022-12-24T19:58:48.054Z,97.01
2022-12-24T20:01:17.444Z,96.89
2022-12-24T20:03:45.051Z,96.72
2022-12-24T20:06:12.915Z,96.87
2022-12-24T20:08:40.268Z,96.43
2022-12-24T20:11:15.438Z,96.85
2022-12-24T20:13:42.502Z,96.76
2022-12-24T20:16:10.390Z,96.87
2022-12-24T20:18:39.537Z,96.78
2022-12-24T20:21:09.912Z,96.88
2022-12-24T20:23:41.333Z,97.10
2022-12-24T20:26:11.142Z,96.89
2022-12-24T20:28:38.407Z,97.10
2022-12-24T20:31:22.221Z,96.64
2022-12-24T20:33:49.252Z,96.83
2022-12-24T20:36:20.231Z,96.57
2022-12-24T20:38:47.480Z,97.06
2022-12-24T20:41:15.873Z,97.10
2022-12-24T20:43:48.299Z,97.27
2022-12-24T20:46:16.830Z,97.30
2022-12-24T20:48:45.834Z,97.51
2022-12-24T20:51:24.393Z,97.46
2022-12-24T20:54:00.707Z,97.82
2022-12-24T20:56:27.966Z,97.69
2022-12-24T20:58:54.683Z,97.76
2022-12-24T21:01:25.603Z,97.83
2022-12-24T21:03:54.227Z,97.63
2022-12-24T21:06:21.610Z,97.95
2022-12-24T21:08:49.085Z,98.06
2022-12-24T21:11:34.326Z,97.59
2022-12-24T21:14:06.509Z,97.67
2022-12-24T21:16:36.153Z,97.82
2022-12-24T21:19:04.167Z,97.68
2022-12-24T21:21:31.589Z,98.16
2022-12-24T21:23:58.590Z,97.92
2022-12-24T21:26:25.128Z,98.21
2022-12-24T21:28:53.875Z,98.08
2022-12-24T21:31:22.976Z,98.05
2022-12-24T21:33:54.778Z,98.25
2022-12-24T21:36:21.385Z,97.99
2022-12-24T21:38:50.136Z,98.13
2022-12-24T21:41:20.534Z,98.11
2022-12-24T21:43:47.162Z,98.11
2022-12-24T21:46:17.595Z,98.27
2022-12-24T21:49:03.320Z,98.33
2022-12-24T21:51:30.757Z,98.48
2022-12-24T21:54:15.901Z,98.60
2022-12-24T21:57:01.234Z,98.65
2022-12-24T21:59:28.422Z,99.03
2022-12-24T22:01:56.526Z,99.11
2022-12-24T22:04:23.743Z,99.14
2022-12-24T22:07:09.656Z,99.23
2022-12-24T22:09:57.016Z,99.38
2022-12-24T22:12:24.529Z,99.36
2022-12-24T22:14:51.295Z,99.55
2022-12-24T22:17:25.256Z,99.81
2022-12-24T22:19:55.516Z,99.92
2022-12-24T22:22:23.022Z,99.72
2022-12-24T22:24:49.735Z,100.00
2022-12-24T22:27:16.336Z,100.00
2022-12-24T22:29:42.966Z,100.00
2022-12-24T22:32:09.694Z,99.85
2022-12-24T22:34:36.723Z,100.00
2022-12-24T22:37:03.348Z,100.00
2022-12-24T22:39:29.864Z,99.89
2022-12-24T22:41:58.087Z,99.87
2022-12-24T22:44:25.142Z,99.30
2022-12-24T22:46:54.008Z,99.81
2022-12-24T22:49:20.826Z,99.46
2022-12-24T22:51:47.427Z,99.86
2022-12-24T22:54:14.132Z,99.53
2022-12-24T22:56:41.746Z,99.80
2022-12-24T22:59:12.564Z,99.67
2022-12-24T23:01:41.916Z,99.56
2022-12-24T23:04:10.904Z,99.48
2022-12-24T23:06:37.834Z,99.42
2022-12-24T23:09:07.056Z,99.53
2022-12-24T23:11:33.944Z,99.33
2022-12-24T23:14:18.926Z,99.46
2022-12-24T23:16:45.536Z,99.47
2022-12-24T23:19:12.781Z,99.11
2022-12-24T23:21:39.387Z,99.33
2022-12-24T23:24:12.070Z,99.43
2022-12-24T23:26:38.753Z,99.26
2022-12-24T23:29:05.349Z,99.35
2022-12-24T23:31:34.728Z,99.00
2022-12-24T23:34:01.617Z,99.32
2022-12-24T23:36:28.185Z,99.06
2022-12-24T23:38:54.949Z,99.55
2022-12-24T23:41:24.097Z,99.05
2022-12-24T23:43:50.697Z,99.09
2022-12-24T23:46:18.561Z,99.23
2022-12-24T23:48:46.013Z,99.18
2022-12-24T23:51:19.667Z,99.45
2022-12-24T23:53:48.963Z,99.31
2022-12-24T23:56:16.180Z,99.56
2022-12-24T23:58:44.694Z,99.15
